Time;durP1;ratioP1;P1;durP2;ratioP2;P2;SDS_P1;SDS_P2;PMS_P1;PMS_P2;Temp;Humidity;BMP_temperature;BMP_pressure;BME280_temperature;BME280_humidity;BME280_pressure;Samples;Min_cycle;Max_cycle;Signal;HPM_P1;HPM_P2
2021/07/04 00:00:17;;;;;;;6.72;5.20;;;;;;;;;;349813;28;70546;-74
2021/07/04 00:00:31;;;;;;;7.45;5.07;;;;;;;;;;347581;28;138744;-74
2021/07/04 00:00:44;;;;;;;7.28;5.00;;;;;;;;;;349083;28;93144;-74
2021/07/04 00:00:57;;;;;;;6.47;5.10;;;;;;;;;;349194;28;93078;-74
2021/07/04 00:01:10;;;;;;;6.00;4.95;;;;;;;;;;349845;28;68818;-73
2021/07/04 00:01:22;;;;;;;5.75;5.05;;;;;;;;;;349731;28;68992;-75
2021/07/04 00:01:35;;;;;;;6.40;5.35;;;;;;;;;;350648;28;46558;-74
2021/07/04 00:01:47;;;;;;;7.57;5.70;;;;;;;;;;350138;28;69551;-75
2021/07/04 00:02:01;;;;;;;8.63;5.55;;;;;;;;;;349741;28;68773;-74
2021/07/04 00:02:15;;;;;;;8.82;5.40;;;;;;;;;;349727;28;67902;-74
2021/07/04 00:02:27;;;;;;;8.40;5.40;;;;;;;;;;348795;28;92951;-74
2021/07/04 00:02:40;;;;;;;7.90;5.10;;;;;;;;;;348387;28;68972;-74
2021/07/04 00:02:54;;;;;;;7.05;5.00;;;;;;;;;;348325;28;69953;-73
2021/07/04 00:03:07;;;;;;;7.97;4.90;;;;;;;;;;347670;28;91589;-74
2021/07/04 00:03:19;;;;;;;7.57;5.10;;;;;;;;;;350501;28;45785;-73
2021/07/04 00:03:32;;;;;;;8.07;5.22;;;;;;;;;;349712;28;70162;-72
2021/07/04 00:03:44;;;;;;;7.65;5.10;;;;;;;;;;350487;28;45352;-72
2021/07/04 00:03:56;;;;;;;6.97;5.22;;;;;;;;;;349550;28;70010;-72
2021/07/04 00:04:09;;;;;;;6.03;4.93;;;;;;;;;;350653;28;46403;-73
2021/07/04 00:04:21;;;;;;;6.30;4.80;;;;;;;;;;349680;28;68822;-74
2021/07/04 00:04:34;;;;;;;7.30;5.07;;;;;;;;;;349032;28;45405;-74
2021/07/04 00:04:46;;;;;;;7.55;5.20;;;;;;;;;;350429;28;45386;-73
2021/07/04 00:04:58;;;;;;;7.95;5.05;;;;;;;;;;349719;28;70370;-74
2021/07/04 00:05:13;;;;;;;7.53;5.13;;;;;;;;;;350888;28;45019;-73
2021/07/04 00:05:44;;;;;;;6.10;5.13;;;;;;;;;;348092;28;115933;-74
2021/07/04 00:05:57;;;;;;;6.78;5.20;;;;;;;;;;346570;28;160101;-73
2021/07/04 00:06:09;;;;;;;6.63;5.10;;;;;;;;;;348424;28;70515;-73
2021/07/04 00:06:21;;;;;;;6.85;5.28;;;;;;;;;;349141;28;46069;-73
2021/07/04 00:06:34;;;;;;;6.95;5.43;;;;;;;;;;348892;28;70277;-73
2021/07/04 00:06:46;;;;;;;6.85;5.63;;;;;;;;;;350677;28;44902;-73
2021/07/04 00:06:59;;;;;;;6.53;5.45;;;;;;;;;;350035;28;45325;-74
2021/07/04 00:07:11;;;;;;;7.13;5.82;;;;;;;;;;349717;27;70602;-73
2021/07/04 00:07:24;;;;;;;7.10;5.72;;;;;;;;;;349663;28;68947;-72
2021/07/04 00:07:36;;;;;;;8.05;5.63;;;;;;;;;;350397;28;45429;-73
2021/07/04 00:07:49;;;;;;;8.20;5.45;;;;;;;;;;348421;28;67339;-73
2021/07/04 00:08:02;;;;;;;7.25;5.22;;;;;;;;;;346870;28;67750;-73
2021/07/04 00:08:16;;;;;;;7.63;5.47;;;;;;;;;;347801;28;46004;-73
2021/07/04 00:08:28;;;;;;;8.50;6.07;;;;;;;;;;345309;28;115848;-72
2021/07/04 00:08:41;;;;;;;8.27;5.80;;;;;;;;;;347599;28;46503;-73
2021/07/04 00:08:53;;;;;;;8.40;5.50;;;;;;;;;;345488;28;70002;-73
2021/07/04 00:09:05;;;;;;;8.50;5.72;;;;;;;;;;346649;28;47182;-73
2021/07/04 00:09:18;;;;;;;7.88;5.95;;;;;;;;;;345235;28;65669;-74
2021/07/04 00:09:31;;;;;;;8.40;6.05;;;;;;;;;;345521;28;69438;-73
2021/07/04 00:09:44;;;;;;;7.85;5.85;;;;;;;;;;346325;28;46580;-74
2021/07/04 00:09:56;;;;;;;7.13;5.68;;;;;;;;;;345479;28;70077;-74
2021/07/04 00:10:10;;;;;;;6.57;5.57;;;;;;;;;;345453;28;68961;-74
2021/07/04 00:10:24;;;;;;;6.56;5.46;;;;;;;;;;344666;28;93168;-73
2021/07/04 00:10:47;;;;;;;6.85;5.22;;;;;;;;;;343306;28;137739;-74
2021/07/04 00:11:02;;;;;;;8.25;5.10;;;;;;;;;;344546;28;136219;-73
2021/07/04 00:11:15;;;;;;;8.25;5.65;;;;;;;;;;345607;28;115027;-73
2021/07/04 00:11:27;;;;;;;8.23;5.80;;;;;;;;;;349701;28;69039;-74
2021/07/04 00:11:40;;;;;;;7.47;5.57;;;;;;;;;;350511;28;45914;-74
2021/07/04 00:11:52;;;;;;;7.40;5.30;;;;;;;;;;349781;28;69516;-74
2021/07/04 00:12:05;;;;;;;7.60;5.65;;;;;;;;;;350784;28;45475;-73
2021/07/04 00:12:21;;;;;;;6.93;5.63;;;;;;;;;;346869;28;160651;-73
2021/07/04 00:12:33;;;;;;;8.25;5.53;;;;;;;;;;350683;28;46082;-73
2021/07/04 00:12:45;;;;;;;8.13;5.40;;;;;;;;;;349306;28;45957;-74
2021/07/04 00:12:59;;;;;;;8.30;5.53;;;;;;;;;;346959;28;68980;-73
2021/07/04 00:13:11;;;;;;;6.70;5.45;;;;;;;;;;346808;28;69926;-75
2021/07/04 00:13:24;;;;;;;6.88;5.35;;;;;;;;;;347066;28;68310;-74
2021/07/04 00:13:37;;;;;;;7.03;5.20;;;;;;;;;;346115;28;69041;-74
2021/07/04 00:13:53;;;;;;;6.57;5.38;;;;;;;;;;344057;28;137720;-74
2021/07/04 00:14:05;;;;;;;6.68;5.57;;;;;;;;;;346476;28;45349;-73
2021/07/04 00:14:21;;;;;;;6.82;5.35;;;;;;;;;;343454;28;138598;-74
2021/07/04 00:14:33;;;;;;;6.70;5.10;;;;;;;;;;346829;28;46548;-73
2021/07/04 00:14:45;;;;;;;6.90;5.10;;;;;;;;;;347002;28;68326;-74
2021/07/04 00:14:57;;;;;;;7.20;5.18;;;;;;;;;;347727;28;47309;-73
2021/07/04 00:15:11;;;;;;;7.07;5.20;;;;;;;;;;348209;28;47254;-74
2021/07/04 00:15:25;;;;;;;6.85;5.10;;;;;;;;;;346234;28;93419;-74
2021/07/04 00:15:39;;;;;;;5.78;5.03;;;;;;;;;;346940;28;91226;-74
2021/07/04 00:15:52;;;;;;;6.38;5.20;;;;;;;;;;346891;28;114839;-73
2021/07/04 00:16:05;;;;;;;7.63;5.40;;;;;;;;;;348824;28;68935;-74
2021/07/04 00:16:18;;;;;;;7.82;5.50;;;;;;;;;;349316;28;67864;-74
2021/07/04 00:16:30;;;;;;;8.07;5.53;;;;;;;;;;349754;28;70057;-74
2021/07/04 00:16:43;;;;;;;7.80;5.68;;;;;;;;;;349660;28;68994;-74
2021/07/04 00:16:56;;;;;;;6.97;5.38;;;;;;;;;;348064;28;66207;-73
2021/07/04 00:17:08;;;;;;;6.47;5.00;;;;;;;;;;349134;28;46800;-74
2021/07/04 00:17:21;;;;;;;6.57;4.90;;;;;;;;;;348486;28;68263;-73
2021/07/04 00:17:33;;;;;;;6.32;5.25;;;;;;;;;;349595;28;69982;-73
2021/07/04 00:17:46;;;;;;;7.22;5.53;;;;;;;;;;350613;28;45408;-74
2021/07/04 00:17:59;;;;;;;7.03;5.40;;;;;;;;;;349709;28;68873;-74
2021/07/04 00:18:16;;;;;;;6.47;5.10;;;;;;;;;;350558;28;44906;-74
2021/07/04 00:18:29;;;;;;;6.70;4.82;;;;;;;;;;347346;28;137615;-74
2021/07/04 00:18:42;;;;;;;7.50;4.93;;;;;;;;;;349736;28;68497;-74
2021/07/04 00:18:54;;;;;;;7.60;4.85;;;;;;;;;;349882;28;69048;-73
2021/07/04 00:19:07;;;;;;;7.00;4.63;;;;;;;;;;351991;27;45291;-74
2021/07/04 00:19:20;;;;;;;6.35;4.50;;;;;;;;;;351131;27;70404;-73
2021/07/04 00:19:32;;;;;;;6.60;4.95;;;;;;;;;;349752;28;69049;-72
2021/07/04 00:19:44;;;;;;;6.13;4.93;;;;;;;;;;350437;28;46064;-73
2021/07/04 00:19:57;;;;;;;7.30;4.90;;;;;;;;;;349776;28;67703;-72
2021/07/04 00:20:11;;;;;;;7.45;4.75;;;;;;;;;;350639;28;46097;-73
2021/07/04 00:20:23;;;;;;;7.82;4.85;;;;;;;;;;348980;28;93116;-72
2021/07/04 00:20:36;;;;;;;6.40;4.95;;;;;;;;;;349754;28;68527;-72
2021/07/04 00:20:52;;;;;;;6.60;4.60;;;;;;;;;;349757;28;68968;-72
2021/07/04 00:21:07;;;;;;;6.45;4.70;;;;;;;;;;347534;28;137864;-72
2021/07/04 00:21:22;;;;;;;5.50;4.76;;;;;;;;;;345452;28;160623;-73
2021/07/04 00:21:34;;;;;;;6.03;4.80;;;;;;;;;;349080;28;46516;-73
2021/07/04 00:21:47;;;;;;;5.93;4.70;;;;;;;;;;350066;28;44965;-73
2021/07/04 00:21:59;;;;;;;6.25;4.50;;;;;;;;;;348332;28;69023;-73
2021/07/04 00:22:11;;;;;;;6.28;4.53;;;;;;;;;;349018;28;47217;-73
2021/07/04 00:22:24;;;;;;;6.30;4.55;;;;;;;;;;347703;28;47038;-73
2021/07/04 00:22:36;;;;;;;7.15;4.72;;;;;;;;;;346752;28;70028;-72
2021/07/04 00:22:54;;;;;;;8.38;4.50;;;;;;;;;;347070;28;68365;-73
2021/07/04 00:23:07;;;;;;;7.03;4.50;;;;;;;;;;346690;28;138636;-72
2021/07/04 00:23:20;;;;;;;5.93;4.72;;;;;;;;;;350161;28;68270;-72
2021/07/04 00:23:32;;;;;;;5.50;4.43;;;;;;;;;;350422;28;46577;-72
2021/07/04 00:23:45;;;;;;;5.75;4.50;;;;;;;;;;349830;28;68994;-73
2021/07/04 00:23:57;;;;;;;5.82;4.75;;;;;;;;;;350644;28;46057;-73
2021/07/04 00:24:09;;;;;;;5.57;4.70;;;;;;;;;;350648;28;46096;-73
2021/07/04 00:24:22;;;;;;;5.63;4.53;;;;;;;;;;349271;28;68937;-72
2021/07/04 00:24:34;;;;;;;5.50;4.30;;;;;;;;;;350189;28;68990;-72
2021/07/04 00:24:47;;;;;;;5.57;4.40;;;;;;;;;;352053;27;46084;-72
2021/07/04 00:24:59;;;;;;;5.75;4.30;;;;;;;;;;351130;27;68775;-72
2021/07/04 00:25:12;;;;;;;6.57;4.47;;;;;;;;;;352181;27;47160;-74
2021/07/04 00:25:25;;;;;;;7.00;4.70;;;;;;;;;;350954;27;68954;-72
2021/07/04 00:25:39;;;;;;;6.00;4.78;;;;;;;;;;351283;27;67175;-72
2021/07/04 00:25:52;;;;;;;6.82;4.65;;;;;;;;;;350522;27;92152;-72
2021/07/04 00:26:05;;;;;;;6.10;4.30;;;;;;;;;;351059;27;69437;-72
2021/07/04 00:26:18;;;;;;;4.78;4.25;;;;;;;;;;349520;28;66740;-72
2021/07/04 00:26:30;;;;;;;4.80;4.30;;;;;;;;;;348419;28;68989;-74
2021/07/04 00:26:43;;;;;;;5.80;4.40;;;;;;;;;;347051;28;69010;-74
2021/07/04 00:26:55;;;;;;;6.45;4.43;;;;;;;;;;347789;28;45566;-73
2021/07/04 00:27:08;;;;;;;7.00;4.60;;;;;;;;;;346801;28;70359;-74
2021/07/04 00:27:21;;;;;;;6.28;4.82;;;;;;;;;;346702;28;67658;-74
2021/07/04 00:27:34;;;;;;;6.18;5.05;;;;;;;;;;347041;28;69107;-74
2021/07/04 00:27:46;;;;;;;7.32;5.57;;;;;;;;;;347109;28;67302;-73
2021/07/04 00:27:59;;;;;;;9.02;6.30;;;;;;;;;;347776;28;46087;-73
2021/07/04 00:28:12;;;;;;;10.82;7.22;;;;;;;;;;348221;28;68800;-74
2021/07/04 00:28:25;;;;;;;10.20;7.47;;;;;;;;;;349412;28;68974;-73
2021/07/04 00:28:40;;;;;;;8.07;6.13;;;;;;;;;;349635;28;67876;-72
2021/07/04 00:28:53;;;;;;;6.13;4.72;;;;;;;;;;349466;27;116163;-73
2021/07/04 00:29:05;;;;;;;5.53;4.45;;;;;;;;;;349491;28;69023;-73
2021/07/04 00:29:21;;;;;;;6.65;4.90;;;;;;;;;;346968;28;115678;-72
2021/07/04 00:29:33;;;;;;;7.20;5.10;;;;;;;;;;348301;28;69940;-73
2021/07/04 00:29:46;;;;;;;7.43;5.10;;;;;;;;;;349125;28;45687;-73
2021/07/04 00:29:58;;;;;;;7.30;5.15;;;;;;;;;;348267;28;70033;-73
2021/07/04 00:30:12;;;;;;;8.07;5.40;;;;;;;;;;349174;28;46585;-73
2021/07/04 00:30:25;;;;;;;7.85;5.18;;;;;;;;;;347502;28;91889;-73
2021/07/04 00:30:37;;;;;;;6.53;4.72;;;;;;;;;;348307;28;69481;-74
2021/07/04 00:30:50;;;;;;;6.53;5.10;;;;;;;;;;346849;28;69299;-73
2021/07/04 00:31:03;;;;;;;6.32;5.28;;;;;;;;;;345801;28;69407;-73
2021/07/04 00:31:16;;;;;;;6.32;4.90;;;;;;;;;;347085;28;67788;-74
2021/07/04 00:31:28;;;;;;;6.30;4.82;;;;;;;;;;347829;28;45935;-73
2021/07/04 00:31:40;;;;;;;6.07;5.00;;;;;;;;;;346865;28;67818;-73
2021/07/04 00:31:53;;;;;;;5.93;4.80;;;;;;;;;;349094;28;46579;-73
2021/07/04 00:32:06;;;;;;;6.03;4.57;;;;;;;;;;348313;28;68335;-73
2021/07/04 00:32:19;;;;;;;6.30;4.60;;;;;;;;;;348562;28;69769;-72
2021/07/04 00:32:35;;;;;;;6.88;4.60;;;;;;;;;;344536;28;138703;-73
2021/07/04 00:32:49;;;;;;;6.53;4.40;;;;;;;;;;347367;28;68571;-73
2021/07/04 00:33:02;;;;;;;6.10;4.38;;;;;;;;;;348757;28;67820;-73
2021/07/04 00:33:15;;;;;;;6.20;4.50;;;;;;;;;;349720;28;70229;-73
2021/07/04 00:33:27;;;;;;;7.10;4.65;;;;;;;;;;349086;28;67776;-73
2021/07/04 00:33:40;;;;;;;7.65;4.90;;;;;;;;;;350422;28;47199;-73
2021/07/04 00:33:52;;;;;;;7.70;4.82;;;;;;;;;;349644;28;68873;-74
2021/07/04 00:34:05;;;;;;;7.70;4.56;;;;;;;;;;350541;28;46654;-73
2021/07/04 00:34:17;;;;;;;7.32;4.50;;;;;;;;;;350296;28;45426;-73
2021/07/04 00:34:29;;;;;;;6.68;4.60;;;;;;;;;;350037;27;70232;-73
2021/07/04 00:34:42;;;;;;;6.85;4.70;;;;;;;;;;351760;27;46067;-73
2021/07/04 00:34:54;;;;;;;6.35;4.60;;;;;;;;;;351622;27;46839;-73
2021/07/04 00:35:08;;;;;;;6.07;4.32;;;;;;;;;;349871;27;67741;-73
2021/07/04 00:35:21;;;;;;;6.75;4.18;;;;;;;;;;349573;28;69184;-73
2021/07/04 00:35:34;;;;;;;6.47;4.20;;;;;;;;;;348866;28;91276;-73
2021/07/04 00:35:47;;;;;;;5.35;4.28;;;;;;;;;;349593;28;68939;-73
2021/07/04 00:35:59;;;;;;;5.60;4.38;;;;;;;;;;349866;28;67856;-73
2021/07/04 00:36:12;;;;;;;5.97;4.45;;;;;;;;;;350621;28;47208;-73
2021/07/04 00:36:24;;;;;;;6.13;4.40;;;;;;;;;;349588;28;69963;-73
2021/07/04 00:36:36;;;;;;;5.93;4.30;;;;;;;;;;350319;28;44969;-73
2021/07/04 00:36:49;;;;;;;5.93;4.32;;;;;;;;;;348275;28;68897;-73
2021/07/04 00:37:02;;;;;;;5.70;4.20;;;;;;;;;;348994;28;45687;-73
2021/07/04 00:37:14;;;;;;;5.80;4.07;;;;;;;;;;348346;28;70639;-74
2021/07/04 00:37:26;;;;;;;5.55;3.85;;;;;;;;;;350292;28;46081;-74
2021/07/04 00:37:39;;;;;;;5.32;3.88;;;;;;;;;;349771;28;67441;-73
2021/07/04 00:37:52;;;;;;;6.15;4.00;;;;;;;;;;350687;28;47212;-73
2021/07/04 00:38:05;;;;;;;6.05;3.97;;;;;;;;;;349788;28;67994;-73
2021/07/04 00:38:21;;;;;;;4.32;3.67;;;;;;;;;;347489;28;136994;-73
2021/07/04 00:38:35;;;;;;;5.48;3.88;;;;;;;;;;350323;28;46273;-74
2021/07/04 00:38:47;;;;;;;7.20;4.14;;;;;;;;;;348896;28;91074;-73
2021/07/04 00:38:59;;;;;;;6.88;4.20;;;;;;;;;;350625;28;45651;-73
2021/07/04 00:39:12;;;;;;;5.35;4.13;;;;;;;;;;347805;28;43221;-74
2021/07/04 00:39:24;;;;;;;6.43;4.22;;;;;;;;;;346898;28;68996;-74
2021/07/04 00:39:37;;;;;;;6.15;4.22;;;;;;;;;;347848;28;46063;-73
2021/07/04 00:39:49;;;;;;;6.07;4.18;;;;;;;;;;346974;28;69184;-74
2021/07/04 00:40:03;;;;;;;5.28;4.03;;;;;;;;;;347780;28;46498;-74
2021/07/04 00:40:16;;;;;;;4.97;4.00;;;;;;;;;;346043;28;91305;-74
2021/07/04 00:40:28;;;;;;;5.38;4.10;;;;;;;;;;347214;28;69097;-74
2021/07/04 00:40:42;;;;;;;6.90;4.05;;;;;;;;;;348030;28;46039;-74
2021/07/04 00:40:58;;;;;;;6.53;3.95;;;;;;;;;;344854;28;136921;-73
2021/07/04 00:41:10;;;;;;;5.13;4.07;;;;;;;;;;347966;28;46800;-74
2021/07/04 00:41:23;;;;;;;4.82;4.18;;;;;;;;;;349683;28;68960;-74
2021/07/04 00:41:35;;;;;;;5.20;4.20;;;;;;;;;;350481;28;44982;-73
2021/07/04 00:41:49;;;;;;;5.45;4.22;;;;;;;;;;348229;28;114868;-74
2021/07/04 00:42:02;;;;;;;5.80;4.28;;;;;;;;;;350404;28;45860;-73
2021/07/04 00:42:14;;;;;;;5.97;4.40;;;;;;;;;;349688;28;70238;-74
2021/07/04 00:42:27;;;;;;;5.68;4.45;;;;;;;;;;350442;28;47079;-73
2021/07/04 00:42:39;;;;;;;5.00;4.32;;;;;;;;;;349713;28;68010;-74
2021/07/04 00:42:53;;;;;;;5.80;4.50;;;;;;;;;;348638;28;67996;-74
2021/07/04 00:43:05;;;;;;;6.35;4.63;;;;;;;;;;349762;28;68900;-73
2021/07/04 00:43:18;;;;;;;6.55;4.80;;;;;;;;;;349835;28;69971;-74
2021/07/04 00:43:30;;;;;;;6.72;5.07;;;;;;;;;;350504;28;45427;-74
2021/07/04 00:43:44;;;;;;;7.95;5.78;;;;;;;;;;349808;28;67802;-74
2021/07/04 00:43:56;;;;;;;8.52;6.50;;;;;;;;;;349695;28;68816;-73
2021/07/04 00:44:08;;;;;;;8.25;6.55;;;;;;;;;;349140;28;45390;-74
2021/07/04 00:44:21;;;;;;;7.57;6.50;;;;;;;;;;348304;28;68732;-73
2021/07/04 00:44:33;;;;;;;8.95;7.10;;;;;;;;;;348992;28;46053;-73
2021/07/04 00:44:46;;;;;;;10.20;7.45;;;;;;;;;;348314;28;70108;-73
2021/07/04 00:44:58;;;;;;;10.60;7.75;;;;;;;;;;350350;28;46099;-73
2021/07/04 00:45:12;;;;;;;10.23;8.32;;;;;;;;;;348394;28;68845;-74
2021/07/04 00:45:25;;;;;;;12.57;9.52;;;;;;;;;;347498;28;93124;-74
2021/07/04 00:45:37;;;;;;;15.93;11.18;;;;;;;;;;349009;28;70037;-74
2021/07/04 00:45:50;;;;;;;17.73;12.27;;;;;;;;;;350375;28;46122;-74
2021/07/04 00:46:03;;;;;;;16.17;12.18;;;;;;;;;;349834;28;67958;-74
2021/07/04 00:46:15;;;;;;;17.83;12.35;;;;;;;;;;349599;28;70073;-73
2021/07/04 00:46:30;;;;;;;18.23;12.80;;;;;;;;;;350568;28;47470;-73
2021/07/04 00:46:43;;;;;;;17.80;12.80;;;;;;;;;;345805;28;138823;-74
2021/07/04 00:46:56;;;;;;;16.75;12.48;;;;;;;;;;348217;28;70313;-73
2021/07/04 00:47:08;;;;;;;16.85;12.32;;;;;;;;;;349310;28;45423;-74
2021/07/04 00:47:21;;;;;;;15.63;12.23;;;;;;;;;;348270;28;68972;-74
2021/07/04 00:47:34;;;;;;;14.48;12.05;;;;;;;;;;346943;28;69500;-74
2021/07/04 00:47:48;;;;;;;13.43;11.00;;;;;;;;;;346701;28;68948;-73
2021/07/04 00:48:01;;;;;;;13.13;9.80;;;;;;;;;;346922;28;68922;-73
2021/07/04 00:48:14;;;;;;;11.93;8.90;;;;;;;;;;346547;28;92712;-73
2021/07/04 00:48:27;;;;;;;11.05;8.18;;;;;;;;;;346697;28;70362;-74
2021/07/04 00:48:42;;;;;;;10.23;7.70;;;;;;;;;;345829;28;116281;-74
2021/07/04 00:48:54;;;;;;;9.43;7.68;;;;;;;;;;348459;28;67729;-73
2021/07/04 00:49:07;;;;;;;9.75;8.10;;;;;;;;;;347743;28;47211;-74
2021/07/04 00:49:19;;;;;;;11.10;8.77;;;;;;;;;;347416;28;68939;-73
2021/07/04 00:49:32;;;;;;;11.70;8.90;;;;;;;;;;349367;28;46194;-74
2021/07/04 00:49:44;;;;;;;12.82;9.25;;;;;;;;;;349540;28;69127;-74
2021/07/04 00:49:56;;;;;;;13.15;9.95;;;;;;;;;;350447;28;44944;-75
2021/07/04 00:50:10;;;;;;;13.38;10.60;;;;;;;;;;350531;28;45019;-74
2021/07/04 00:50:24;;;;;;;13.32;10.75;;;;;;;;;;349729;28;69007;-73
2021/07/04 00:50:36;;;;;;;14.10;11.23;;;;;;;;;;350269;27;92184;-73
2021/07/04 00:50:49;;;;;;;15.50;11.77;;;;;;;;;;351125;27;70473;-72
2021/07/04 00:51:02;;;;;;;15.48;11.98;;;;;;;;;;351935;27;44661;-72
2021/07/04 00:51:14;;;;;;;15.98;12.63;;;;;;;;;;351242;27;67543;-74
2021/07/04 00:51:27;;;;;;;16.45;13.40;;;;;;;;;;351887;27;46596;-73
2021/07/04 00:51:39;;;;;;;18.00;14.15;;;;;;;;;;351264;27;67801;-73
2021/07/04 00:51:52;;;;;;;18.83;14.55;;;;;;;;;;351397;27;67768;-72
2021/07/04 00:52:04;;;;;;;18.92;14.02;;;;;;;;;;351946;27;46256;-73
2021/07/04 00:52:22;;;;;;;18.42;14.20;;;;;;;;;;350928;27;69020;-73
2021/07/04 00:52:35;;;;;;;20.85;15.55;;;;;;;;;;347206;28;139065;-73
2021/07/04 00:52:52;;;;;;;23.90;17.13;;;;;;;;;;347546;28;139291;-73
2021/07/04 00:53:04;;;;;;;24.33;17.52;;;;;;;;;;347501;28;92623;-73
2021/07/04 00:53:17;;;;;;;24.17;17.50;;;;;;;;;;347670;28;46046;-73
2021/07/04 00:53:29;;;;;;;24.85;18.73;;;;;;;;;;348270;28;70118;-74
2021/07/04 00:53:42;;;;;;;25.75;20.05;;;;;;;;;;348317;28;66780;-74
2021/07/04 00:53:54;;;;;;;28.10;21.23;;;;;;;;;;348807;28;46259;-73
2021/07/04 00:54:10;;;;;;;31.70;22.83;;;;;;;;;;348938;28;45417;-74
2021/07/04 00:54:22;;;;;;;35.72;24.90;;;;;;;;;;345886;28;137914;-74
2021/07/04 00:54:35;;;;;;;37.95;25.42;;;;;;;;;;350030;28;47251;-73
2021/07/04 00:54:48;;;;;;;42.20;27.55;;;;;;;;;;348894;28;92026;-73
2021/07/04 00:55:01;;;;;;;44.70;29.77;;;;;;;;;;350851;28;44920;-74
2021/07/04 00:55:14;;;;;;;46.20;31.50;;;;;;;;;;349708;28;68945;-74
2021/07/04 00:55:26;;;;;;;50.13;34.40;;;;;;;;;;349063;28;91206;-74
2021/07/04 00:55:39;;;;;;;55.22;36.33;;;;;;;;;;350702;28;47086;-74
2021/07/04 00:55:52;;;;;;;53.03;35.63;;;;;;;;;;349817;27;68962;-74
2021/07/04 00:56:04;;;;;;;51.38;34.78;;;;;;;;;;350572;28;45635;-74
2021/07/04 00:56:16;;;;;;;51.42;34.38;;;;;;;;;;349574;28;70012;-74
2021/07/04 00:56:29;;;;;;;52.28;35.10;;;;;;;;;;350605;28;47527;-73
2021/07/04 00:56:42;;;;;;;53.47;35.72;;;;;;;;;;349836;28;70110;-74
2021/07/04 00:56:54;;;;;;;53.00;35.47;;;;;;;;;;349875;28;68967;-74
2021/07/04 00:57:07;;;;;;;54.05;35.55;;;;;;;;;;351970;27;44932;-74
2021/07/04 00:57:19;;;;;;;54.88;35.53;;;;;;;;;;351128;27;68976;-73
2021/07/04 00:57:32;;;;;;;59.64;35.48;;;;;;;;;;351890;27;46148;-74
2021/07/04 00:57:45;;;;;;;58.58;35.62;;;;;;;;;;351662;27;47228;-73
2021/07/04 00:57:58;;;;;;;60.70;37.75;;;;;;;;;;351105;27;68976;-73
2021/07/04 00:58:10;;;;;;;61.90;39.25;;;;;;;;;;351897;27;46192;-74
2021/07/04 00:58:22;;;;;;;59.55;38.92;;;;;;;;;;351108;27;67822;-73
2021/07/04 00:58:35;;;;;;;57.35;38.65;;;;;;;;;;351879;27;45412;-73
2021/07/04 00:58:48;;;;;;;59.28;38.47;;;;;;;;;;351096;27;70081;-73
2021/07/04 00:59:00;;;;;;;59.08;38.55;;;;;;;;;;351910;27;45935;-74
2021/07/04 00:59:13;;;;;;;59.47;39.08;;;;;;;;;;349789;28;68791;-74
2021/07/04 00:59:26;;;;;;;58.70;38.35;;;;;;;;;;349780;27;68949;-73
2021/07/04 00:59:38;;;;;;;58.42;38.78;;;;;;;;;;349851;28;68824;-74
2021/07/04 00:59:51;;;;;;;55.70;37.88;;;;;;;;;;350703;27;47239;-74
2021/07/04 01:00:07;;;;;;;53.08;36.63;;;;;;;;;;349877;28;68774;-73
2021/07/04 01:00:26;;;;;;;52.97;35.55;;;;;;;;;;347090;28;138352;-73
2021/07/04 01:00:39;;;;;;;51.70;34.25;;;;;;;;;;348842;28;91931;-73
2021/07/04 01:00:51;;;;;;;47.58;33.05;;;;;;;;;;349439;28;67783;-73
2021/07/04 01:01:04;;;;;;;47.67;31.50;;;;;;;;;;349713;28;67848;-74
2021/07/04 01:01:16;;;;;;;47.22;29.90;;;;;;;;;;350518;28;46598;-72
2021/07/04 01:01:29;;;;;;;42.30;28.17;;;;;;;;;;349627;28;68448;-71
2021/07/04 01:01:41;;;;;;;39.03;26.42;;;;;;;;;;348820;28;47167;-72
2021/07/04 01:01:58;;;;;;;38.63;25.98;;;;;;;;;;348281;28;69037;-72
2021/07/04 01:02:11;;;;;;;37.17;25.80;;;;;;;;;;345748;28;137626;-73
2021/07/04 01:02:24;;;;;;;37.28;25.40;;;;;;;;;;349332;28;70113;-73
2021/07/04 01:02:37;;;;;;;38.20;25.25;;;;;;;;;;348274;28;70059;-71
2021/07/04 01:02:51;;;;;;;36.97;25.08;;;;;;;;;;347418;28;93053;-72
2021/07/04 01:03:04;;;;;;;36.55;25.52;;;;;;;;;;346909;28;68479;-72
2021/07/04 01:03:16;;;;;;;37.60;25.83;;;;;;;;;;346869;28;68830;-73
2021/07/04 01:03:29;;;;;;;36.78;25.60;;;;;;;;;;347496;28;47092;-73
2021/07/04 01:03:41;;;;;;;35.17;24.80;;;;;;;;;;347495;28;68945;-73
2021/07/04 01:03:53;;;;;;;34.20;24.80;;;;;;;;;;349099;28;44961;-73
2021/07/04 01:04:06;;;;;;;35.53;25.17;;;;;;;;;;348337;28;70084;-72
2021/07/04 01:04:19;;;;;;;36.50;25.17;;;;;;;;;;349073;28;45705;-73
2021/07/04 01:04:31;;;;;;;36.80;25.27;;;;;;;;;;348324;28;67887;-73
2021/07/04 01:04:46;;;;;;;36.55;24.48;;;;;;;;;;350204;27;93396;-73
2021/07/04 01:04:58;;;;;;;36.60;24.42;;;;;;;;;;350927;27;68777;-73
2021/07/04 01:05:12;;;;;;;36.85;24.55;;;;;;;;;;351310;27;68903;-74
2021/07/04 01:05:32;;;;;;;37.65;25.20;;;;;;;;;;350233;27;91939;-73
2021/07/04 01:05:45;;;;;;;37.70;25.40;;;;;;;;;;348857;27;138683;-73
2021/07/04 01:05:57;;;;;;;37.08;24.95;;;;;;;;;;352111;27;46202;-73
2021/07/04 01:06:09;;;;;;;36.03;25.10;;;;;;;;;;351041;27;68555;-73
2021/07/04 01:06:22;;;;;;;37.25;24.90;;;;;;;;;;351921;27;46173;-74
2021/07/04 01:06:35;;;;;;;39.03;25.38;;;;;;;;;;351302;27;68730;-74
2021/07/04 01:06:47;;;;;;;39.17;26.10;;;;;;;;;;350814;27;69291;-74
2021/07/04 01:06:59;;;;;;;37.20;26.10;;;;;;;;;;351969;27;45382;-75
2021/07/04 01:07:12;;;;;;;36.70;25.63;;;;;;;;;;351057;27;70030;-74
2021/07/04 01:07:24;;;;;;;35.92;25.85;;;;;;;;;;351883;27;45898;-74
2021/07/04 01:07:37;;;;;;;35.67;25.75;;;;;;;;;;351934;27;44908;-73
2021/07/04 01:07:50;;;;;;;34.63;25.25;;;;;;;;;;351109;27;70032;-74
2021/07/04 01:08:03;;;;;;;35.20;25.52;;;;;;;;;;351079;27;69020;-73
2021/07/04 01:08:15;;;;;;;36.40;26.10;;;;;;;;;;351036;27;69049;-74
2021/07/04 01:08:28;;;;;;;37.28;26.95;;;;;;;;;;351082;27;68116;-73
2021/07/04 01:08:40;;;;;;;37.42;26.25;;;;;;;;;;351857;27;47222;-73
2021/07/04 01:08:53;;;;;;;39.15;25.73;;;;;;;;;;351082;27;69005;-73
2021/07/04 01:09:05;;;;;;;40.22;25.98;;;;;;;;;;351867;27;45504;-73
2021/07/04 01:09:17;;;;;;;38.65;25.70;;;;;;;;;;349626;28;66470;-72
2021/07/04 01:09:30;;;;;;;37.58;25.25;;;;;;;;;;350400;28;44867;-73
2021/07/04 01:09:42;;;;;;;35.40;24.67;;;;;;;;;;348212;28;65216;-73
2021/07/04 01:09:55;;;;;;;34.83;24.80;;;;;;;;;;349169;28;45232;-73
2021/07/04 01:10:08;;;;;;;37.14;25.66;;;;;;;;;;348974;28;46888;-75
2021/07/04 01:10:22;;;;;;;37.65;25.58;;;;;;;;;;348251;28;70293;-73
2021/07/04 01:10:35;;;;;;;36.00;24.55;;;;;;;;;;346182;28;91991;-73
2021/07/04 01:10:48;;;;;;;36.45;24.70;;;;;;;;;;347270;28;91964;-74
2021/07/04 01:11:02;;;;;;;35.10;24.35;;;;;;;;;;348870;28;46626;-73
2021/07/04 01:11:15;;;;;;;32.25;23.60;;;;;;;;;;346715;28;115823;-73
2021/07/04 01:11:27;;;;;;;33.00;23.52;;;;;;;;;;350118;28;47115;-71
2021/07/04 01:11:40;;;;;;;33.78;23.67;;;;;;;;;;349619;28;68980;-73
2021/07/04 01:11:53;;;;;;;34.25;24.13;;;;;;;;;;351227;27;68877;-73
2021/07/04 01:12:05;;;;;;;33.84;24.08;;;;;;;;;;351903;27;47466;-72
2021/07/04 01:12:19;;;;;;;32.03;24.13;;;;;;;;;;351309;27;70484;-73
2021/07/04 01:12:32;;;;;;;31.48;23.40;;;;;;;;;;351019;27;69967;-73
2021/07/04 01:12:45;;;;;;;31.48;23.55;;;;;;;;;;351265;27;68502;-73
2021/07/04 01:12:59;;;;;;;31.75;23.67;;;;;;;;;;351182;27;69045;-73
2021/07/04 01:13:13;;;;;;;31.08;23.38;;;;;;;;;;350312;27;91984;-73
2021/07/04 01:13:25;;;;;;;31.20;22.98;;;;;;;;;;350283;27;92088;-73
2021/07/04 01:13:38;;;;;;;32.22;23.02;;;;;;;;;;351158;27;67787;-73
2021/07/04 01:13:51;;;;;;;30.50;22.60;;;;;;;;;;351775;27;46205;-72
2021/07/04 01:14:03;;;;;;;30.08;22.08;;;;;;;;;;351122;27;69025;-72
2021/07/04 01:14:16;;;;;;;29.85;22.05;;;;;;;;;;350976;27;70007;-72
2021/07/04 01:14:29;;;;;;;29.30;21.12;;;;;;;;;;351992;27;46150;-73
2021/07/04 01:14:41;;;;;;;29.70;21.02;;;;;;;;;;351975;27;47514;-73
2021/07/04 01:14:54;;;;;;;28.85;20.27;;;;;;;;;;351074;27;68977;-73
2021/07/04 01:15:10;;;;;;;26.35;19.58;;;;;;;;;;349211;28;69388;-73
2021/07/04 01:15:26;;;;;;;24.73;19.05;;;;;;;;;;348045;27;137556;-73
2021/07/04 01:15:39;;;;;;;27.33;20.33;;;;;;;;;;348687;27;139114;-74
2021/07/04 01:15:55;;;;;;;28.52;20.60;;;;;;;;;;350974;27;67833;-73
2021/07/04 01:16:07;;;;;;;28.98;20.67;;;;;;;;;;349251;28;116152;-73
2021/07/04 01:16:20;;;;;;;28.52;20.45;;;;;;;;;;350861;28;70041;-73
2021/07/04 01:16:33;;;;;;;27.63;19.77;;;;;;;;;;350928;28;68569;-73
2021/07/04 01:16:45;;;;;;;25.70;19.20;;;;;;;;;;350998;27;69375;-74
2021/07/04 01:17:01;;;;;;;24.95;19.38;;;;;;;;;;351031;27;47159;-74
2021/07/04 01:17:13;;;;;;;26.30;20.25;;;;;;;;;;348109;28;115058;-73
2021/07/04 01:17:27;;;;;;;26.85;20.23;;;;;;;;;;350492;28;46860;-73
2021/07/04 01:17:39;;;;;;;26.30;19.63;;;;;;;;;;348804;28;92546;-74
2021/07/04 01:17:53;;;;;;;25.60;18.88;;;;;;;;;;350468;28;45795;-73
2021/07/04 01:18:06;;;;;;;26.75;19.23;;;;;;;;;;349656;28;69008;-73
2021/07/04 01:18:19;;;;;;;28.08;19.90;;;;;;;;;;348777;28;91281;-73
2021/07/04 01:18:32;;;;;;;29.88;20.80;;;;;;;;;;351039;27;68304;-73